sensor_id;sensor_type;location;lat;lon;timestamp;temperature;humidity
76384;SHT30;65204;48.606;7.598;2023-09-07T00:00:20;23.05;58.08
76384;SHT30;65204;48.606;7.598;2023-09-07T00:00:50;23.05;58.16
76384;SHT30;65204;48.606;7.598;2023-09-07T00:01:20;23.04;58.10
76384;SHT30;65204;48.606;7.598;2023-09-07T00:01:51;23.10;58.02
76384;SHT30;65204;48.606;7.598;2023-09-07T00:02:22;23.05;58.05
76384;SHT30;65204;48.606;7.598;2023-09-07T00:02:53;23.07;58.14
76384;SHT30;65204;48.606;7.598;2023-09-07T00:03:23;23.08;57.98
76384;SHT30;65204;48.606;7.598;2023-09-07T00:03:53;23.12;58.08
76384;SHT30;65204;48.606;7.598;2023-09-07T00:04:24;23.15;57.91
76384;SHT30;65204;48.606;7.598;2023-09-07T00:04:54;23.17;57.91
76384;SHT30;65204;48.606;7.598;2023-09-07T00:05:24;23.15;57.89
76384;SHT30;65204;48.606;7.598;2023-09-07T00:05:55;23.17;57.95
76384;SHT30;65204;48.606;7.598;2023-09-07T00:06:25;23.15;57.84
76384;SHT30;65204;48.606;7.598;2023-09-07T00:06:56;23.21;57.88
76384;SHT30;65204;48.606;7.598;2023-09-07T00:07:27;23.22;57.80
76384;SHT30;65204;48.606;7.598;2023-09-07T00:07:57;23.25;57.74
76384;SHT30;65204;48.606;7.598;2023-09-07T00:08:27;23.15;57.75
76384;SHT30;65204;48.606;7.598;2023-09-07T00:08:58;23.19;57.84
76384;SHT30;65204;48.606;7.598;2023-09-07T00:09:28;23.17;57.86
76384;SHT30;65204;48.606;7.598;2023-09-07T00:09:58;23.17;57.88
76384;SHT30;65204;48.606;7.598;2023-09-07T00:10:29;23.19;57.80
76384;SHT30;65204;48.606;7.598;2023-09-07T00:11:06;23.24;57.66
76384;SHT30;65204;48.606;7.598;2023-09-07T00:11:37;23.25;57.67
76384;SHT30;65204;48.606;7.598;2023-09-07T00:12:08;23.19;57.69
76384;SHT30;65204;48.606;7.598;2023-09-07T00:12:38;23.19;57.73
76384;SHT30;65204;48.606;7.598;2023-09-07T00:13:09;23.14;57.83
76384;SHT30;65204;48.606;7.598;2023-09-07T00:13:39;23.12;57.86
76384;SHT30;65204;48.606;7.598;2023-09-07T00:14:10;23.10;57.91
76384;SHT30;65204;48.606;7.598;2023-09-07T00:14:40;23.07;57.95
76384;SHT30;65204;48.606;7.598;2023-09-07T00:15:10;23.05;57.99
76384;SHT30;65204;48.606;7.598;2023-09-07T00:15:41;23.03;58.00
76384;SHT30;65204;48.606;7.598;2023-09-07T00:16:11;23.03;58.00
76384;SHT30;65204;48.606;7.598;2023-09-07T00:16:41;23.05;58.01
76384;SHT30;65204;48.606;7.598;2023-09-07T00:17:12;23.03;57.99
76384;SHT30;65204;48.606;7.598;2023-09-07T00:17:42;23.04;57.96
76384;SHT30;65204;48.606;7.598;2023-09-07T00:18:12;23.08;57.96
76384;SHT30;65204;48.606;7.598;2023-09-07T00:18:43;23.08;57.87
76384;SHT30;65204;48.606;7.598;2023-09-07T00:19:13;23.11;57.85
76384;SHT30;65204;48.606;7.598;2023-09-07T00:19:43;23.11;57.80
76384;SHT30;65204;48.606;7.598;2023-09-07T00:20:14;23.14;57.80
76384;SHT30;65204;48.606;7.598;2023-09-07T00:20:44;23.18;57.81
76384;SHT30;65204;48.606;7.598;2023-09-07T00:21:14;23.22;57.70
76384;SHT30;65204;48.606;7.598;2023-09-07T00:21:45;23.21;57.58
76384;SHT30;65204;48.606;7.598;2023-09-07T00:22:15;23.18;57.59
76384;SHT30;65204;48.606;7.598;2023-09-07T00:22:46;23.21;57.50
76384;SHT30;65204;48.606;7.598;2023-09-07T00:23:17;23.19;57.56
76384;SHT30;65204;48.606;7.598;2023-09-07T00:23:47;23.19;57.51
76384;SHT30;65204;48.606;7.598;2023-09-07T00:24:17;23.18;57.61
76384;SHT30;65204;48.606;7.598;2023-09-07T00:24:48;23.19;57.59
76384;SHT30;65204;48.606;7.598;2023-09-07T00:25:18;23.18;57.60
76384;SHT30;65204;48.606;7.598;2023-09-07T00:25:50;23.18;57.63
76384;SHT30;65204;48.606;7.598;2023-09-07T00:26:20;23.11;57.72
76384;SHT30;65204;48.606;7.598;2023-09-07T00:26:50;23.10;57.77
76384;SHT30;65204;48.606;7.598;2023-09-07T00:27:22;23.08;57.86
76384;SHT30;65204;48.606;7.598;2023-09-07T00:27:52;23.01;57.92
76384;SHT30;65204;48.606;7.598;2023-09-07T00:28:22;23.00;57.94
76384;SHT30;65204;48.606;7.598;2023-09-07T00:28:53;23.00;57.96
76384;SHT30;65204;48.606;7.598;2023-09-07T00:29:23;23.01;57.99
76384;SHT30;65204;48.606;7.598;2023-09-07T00:29:54;23.01;57.99
76384;SHT30;65204;48.606;7.598;2023-09-07T00:30:24;23.00;57.96
76384;SHT30;65204;48.606;7.598;2023-09-07T00:30:55;22.98;58.00
76384;SHT30;65204;48.606;7.598;2023-09-07T00:31:25;23.01;58.00
76384;SHT30;65204;48.606;7.598;2023-09-07T00:31:55;22.98;57.94
76384;SHT30;65204;48.606;7.598;2023-09-07T00:32:26;23.00;57.96
76384;SHT30;65204;48.606;7.598;2023-09-07T00:32:56;23.01;58.00
76384;SHT30;65204;48.606;7.598;2023-09-07T00:33:26;22.98;58.02
76384;SHT30;65204;48.606;7.598;2023-09-07T00:33:56;22.95;58.05
76384;SHT30;65204;48.606;7.598;2023-09-07T00:34:27;22.97;58.01
76384;SHT30;65204;48.606;7.598;2023-09-07T00:34:57;22.97;58.04
76384;SHT30;65204;48.606;7.598;2023-09-07T00:35:27;22.94;58.05
76384;SHT30;65204;48.606;7.598;2023-09-07T00:35:58;22.95;58.02
76384;SHT30;65204;48.606;7.598;2023-09-07T00:36:28;22.93;58.06
76384;SHT30;65204;48.606;7.598;2023-09-07T00:37:00;22.94;58.13
76384;SHT30;65204;48.606;7.598;2023-09-07T00:37:31;22.94;58.12
76384;SHT30;65204;48.606;7.598;2023-09-07T00:38:01;22.93;58.10
76384;SHT30;65204;48.606;7.598;2023-09-07T00:38:32;22.90;58.12
76384;SHT30;65204;48.606;7.598;2023-09-07T00:39:02;22.90;58.16
76384;SHT30;65204;48.606;7.598;2023-09-07T00:39:33;22.90;58.11
76384;SHT30;65204;48.606;7.598;2023-09-07T00:40:03;22.90;58.17
76384;SHT30;65204;48.606;7.598;2023-09-07T00:40:34;22.87;58.18
76384;SHT30;65204;48.606;7.598;2023-09-07T00:41:05;22.86;58.19
76384;SHT30;65204;48.606;7.598;2023-09-07T00:41:35;22.87;58.23
76384;SHT30;65204;48.606;7.598;2023-09-07T00:42:05;22.84;58.21
76384;SHT30;65204;48.606;7.598;2023-09-07T00:42:36;22.84;58.20
76384;SHT30;65204;48.606;7.598;2023-09-07T00:43:06;22.87;58.18
76384;SHT30;65204;48.606;7.598;2023-09-07T00:43:37;22.86;58.16
76384;SHT30;65204;48.606;7.598;2023-09-07T00:44:09;22.87;58.16
76384;SHT30;65204;48.606;7.598;2023-09-07T00:44:40;22.87;58.13
76384;SHT30;65204;48.606;7.598;2023-09-07T00:45:10;22.88;58.12
76384;SHT30;65204;48.606;7.598;2023-09-07T00:45:40;22.88;58.13
76384;SHT30;65204;48.606;7.598;2023-09-07T00:46:11;22.87;58.10
76384;SHT30;65204;48.606;7.598;2023-09-07T00:46:42;22.86;58.09
76384;SHT30;65204;48.606;7.598;2023-09-07T00:47:15;22.86;58.12
76384;SHT30;65204;48.606;7.598;2023-09-07T00:47:46;22.84;58.12
76384;SHT30;65204;48.606;7.598;2023-09-07T00:48:16;22.83;58.12
76384;SHT30;65204;48.606;7.598;2023-09-07T00:48:48;22.86;58.14
76384;SHT30;65204;48.606;7.598;2023-09-07T00:49:18;22.86;58.14
76384;SHT30;65204;48.606;7.598;2023-09-07T00:49:48;22.83;58.12
76384;SHT30;65204;48.606;7.598;2023-09-07T00:50:19;22.81;58.15
76384;SHT30;65204;48.606;7.598;2023-09-07T00:50:49;22.84;58.18
76384;SHT30;65204;48.606;7.598;2023-09-07T00:51:20;22.83;58.21
76384;SHT30;65204;48.606;7.598;2023-09-07T00:51:51;22.83;58.23
76384;SHT30;65204;48.606;7.598;2023-09-07T00:52:22;22.81;58.24
76384;SHT30;65204;48.606;7.598;2023-09-07T00:52:54;22.77;58.27
76384;SHT30;65204;48.606;7.598;2023-09-07T00:53:26;22.78;58.29
76384;SHT30;65204;48.606;7.598;2023-09-07T00:53:58;22.74;58.32
76384;SHT30;65204;48.606;7.598;2023-09-07T00:54:28;22.75;58.35
76384;SHT30;65204;48.606;7.598;2023-09-07T00:55:04;22.73;58.29
76384;SHT30;65204;48.606;7.598;2023-09-07T00:55:35;22.71;58.36
76384;SHT30;65204;48.606;7.598;2023-09-07T00:56:06;22.70;58.39
76384;SHT30;65204;48.606;7.598;2023-09-07T00:56:37;22.70;58.42
76384;SHT30;65204;48.606;7.598;2023-09-07T00:57:07;22.68;58.36
76384;SHT30;65204;48.606;7.598;2023-09-07T00:57:38;22.70;58.34
76384;SHT30;65204;48.606;7.598;2023-09-07T00:58:09;22.70;58.36
76384;SHT30;65204;48.606;7.598;2023-09-07T00:58:42;22.71;58.36
76384;SHT30;65204;48.606;7.598;2023-09-07T00:59:13;22.71;58.35
76384;SHT30;65204;48.606;7.598;2023-09-07T00:59:43;22.70;58.37
76384;SHT30;65204;48.606;7.598;2023-09-07T01:00:14;22.67;58.46
76384;SHT30;65204;48.606;7.598;2023-09-07T01:00:44;22.70;58.41
76384;SHT30;65204;48.606;7.598;2023-09-07T01:01:14;22.65;58.48
76384;SHT30;65204;48.606;7.598;2023-09-07T01:01:45;22.65;58.54
76384;SHT30;65204;48.606;7.598;2023-09-07T01:02:15;22.65;58.50
76384;SHT30;65204;48.606;7.598;2023-09-07T01:02:45;22.61;58.53
76384;SHT30;65204;48.606;7.598;2023-09-07T01:03:16;22.64;58.52
76384;SHT30;65204;48.606;7.598;2023-09-07T01:03:46;22.64;58.52
76384;SHT30;65204;48.606;7.598;2023-09-07T01:04:16;22.63;58.57
76384;SHT30;65204;48.606;7.598;2023-09-07T01:04:47;22.64;58.50
76384;SHT30;65204;48.606;7.598;2023-09-07T01:05:17;22.61;58.50
76384;SHT30;65204;48.606;7.598;2023-09-07T01:06:00;22.60;58.50
76384;SHT30;65204;48.606;7.598;2023-09-07T01:06:38;22.60;58.55
76384;SHT30;65204;48.606;7.598;2023-09-07T01:07:17;22.56;58.62
76384;SHT30;65204;48.606;7.598;2023-09-07T01:07:55;22.56;58.57
76384;SHT30;65204;48.606;7.598;2023-09-07T01:08:32;22.56;58.57
76384;SHT30;65204;48.606;7.598;2023-09-07T01:09:18;22.53;58.58
76384;SHT30;65204;48.606;7.598;2023-09-07T01:09:52;22.56;58.62
76384;SHT30;65204;48.606;7.598;2023-09-07T01:10:24;22.54;58.66
76384;SHT30;65204;48.606;7.598;2023-09-07T01:10:55;22.54;58.68
76384;SHT30;65204;48.606;7.598;2023-09-07T01:11:25;22.52;58.79
76384;SHT30;65204;48.606;7.598;2023-09-07T01:11:56;22.50;58.73
76384;SHT30;65204;48.606;7.598;2023-09-07T01:12:26;22.46;58.78
76384;SHT30;65204;48.606;7.598;2023-09-07T01:12:57;22.46;58.80
76384;SHT30;65204;48.606;7.598;2023-09-07T01:13:27;22.49;58.81
76384;SHT30;65204;48.606;7.598;2023-09-07T01:13:58;22.44;58.89
76384;SHT30;65204;48.606;7.598;2023-09-07T01:14:28;22.40;58.98
76384;SHT30;65204;48.606;7.598;2023-09-07T01:14:58;22.42;58.88
76384;SHT30;65204;48.606;7.598;2023-09-07T01:15:28;22.40;58.97
76384;SHT30;65204;48.606;7.598;2023-09-07T01:15:59;22.43;58.95
76384;SHT30;65204;48.606;7.598;2023-09-07T01:16:30;22.42;58.97
76384;SHT30;65204;48.606;7.598;2023-09-07T01:17:04;22.39;58.96
76384;SHT30;65204;48.606;7.598;2023-09-07T01:17:36;22.40;58.95
76384;SHT30;65204;48.606;7.598;2023-09-07T01:18:07;22.39;59.00
76384;SHT30;65204;48.606;7.598;2023-09-07T01:18:39;22.39;58.98
76384;SHT30;65204;48.606;7.598;2023-09-07T01:19:09;22.39;58.93
76384;SHT30;65204;48.606;7.598;2023-09-07T01:19:40;22.37;58.93
76384;SHT30;65204;48.606;7.598;2023-09-07T01:20:12;22.42;58.91
76384;SHT30;65204;48.606;7.598;2023-09-07T01:20:45;22.39;58.97
76384;SHT30;65204;48.606;7.598;2023-09-07T01:21:15;22.37;58.99
76384;SHT30;65204;48.606;7.598;2023-09-07T01:21:47;22.36;59.00
76384;SHT30;65204;48.606;7.598;2023-09-07T01:22:21;22.36;58.96
76384;SHT30;65204;48.606;7.598;2023-09-07T01:22:54;22.32;59.16
76384;SHT30;65204;48.606;7.598;2023-09-07T01:23:25;22.30;59.09
76384;SHT30;65204;48.606;7.598;2023-09-07T01:23:56;22.30;59.12
76384;SHT30;65204;48.606;7.598;2023-09-07T01:24:27;22.29;59.14
76384;SHT30;65204;48.606;7.598;2023-09-07T01:25:00;22.30;59.17
76384;SHT30;65204;48.606;7.598;2023-09-07T01:25:31;22.29;59.14
76384;SHT30;65204;48.606;7.598;2023-09-07T01:26:03;22.29;59.15
76384;SHT30;65204;48.606;7.598;2023-09-07T01:26:38;22.32;59.11
76384;SHT30;65204;48.606;7.598;2023-09-07T01:27:09;22.29;59.18
76384;SHT30;65204;48.606;7.598;2023-09-07T01:27:39;22.29;59.21
76384;SHT30;65204;48.606;7.598;2023-09-07T01:28:10;22.30;59.23
76384;SHT30;65204;48.606;7.598;2023-09-07T01:28:40;22.29;59.21
76384;SHT30;65204;48.606;7.598;2023-09-07T01:29:12;22.26;59.20
76384;SHT30;65204;48.606;7.598;2023-09-07T01:29:42;22.26;59.14
76384;SHT30;65204;48.606;7.598;2023-09-07T01:30:12;22.30;59.18
76384;SHT30;65204;48.606;7.598;2023-09-07T01:30:45;22.26;59.15
76384;SHT30;65204;48.606;7.598;2023-09-07T01:31:15;22.23;59.25
76384;SHT30;65204;48.606;7.598;2023-09-07T01:31:45;22.22;59.26
76384;SHT30;65204;48.606;7.598;2023-09-07T01:32:16;22.22;59.30
76384;SHT30;65204;48.606;7.598;2023-09-07T01:32:46;22.19;59.30
76384;SHT30;65204;48.606;7.598;2023-09-07T01:33:16;22.16;59.45
76384;SHT30;65204;48.606;7.598;2023-09-07T01:33:47;22.13;59.51
76384;SHT30;65204;48.606;7.598;2023-09-07T01:34:17;22.13;59.48
76384;SHT30;65204;48.606;7.598;2023-09-07T01:34:48;22.14;59.48
76384;SHT30;65204;48.606;7.598;2023-09-07T01:35:19;22.14;59.52
76384;SHT30;65204;48.606;7.598;2023-09-07T01:35:51;22.09;59.61
76384;SHT30;65204;48.606;7.598;2023-09-07T01:36:22;22.06;59.69
76384;SHT30;65204;48.606;7.598;2023-09-07T01:36:52;22.05;59.70
76384;SHT30;65204;48.606;7.598;2023-09-07T01:37:22;22.03;59.75
76384;SHT30;65204;48.606;7.598;2023-09-07T01:37:53;22.01;59.73
76384;SHT30;65204;48.606;7.598;2023-09-07T01:38:23;22.02;59.81
76384;SHT30;65204;48.606;7.598;2023-09-07T01:38:53;21.98;59.81
76384;SHT30;65204;48.606;7.598;2023-09-07T01:39:24;21.96;59.78
76384;SHT30;65204;48.606;7.598;2023-09-07T01:39:54;21.98;59.75
76384;SHT30;65204;48.606;7.598;2023-09-07T01:40:24;21.98;59.79
76384;SHT30;65204;48.606;7.598;2023-09-07T01:40:55;21.95;59.79
76384;SHT30;65204;48.606;7.598;2023-09-07T01:41:26;21.95;59.81
76384;SHT30;65204;48.606;7.598;2023-09-07T01:41:56;21.96;59.77
76384;SHT30;65204;48.606;7.598;2023-09-07T01:42:27;21.92;59.87
76384;SHT30;65204;48.606;7.598;2023-09-07T01:42:57;21.93;59.82
76384;SHT30;65204;48.606;7.598;2023-09-07T01:43:27;21.93;59.86
76384;SHT30;65204;48.606;7.598;2023-09-07T01:43:58;21.95;59.89
76384;SHT30;65204;48.606;7.598;2023-09-07T01:44:28;21.92;59.88
76384;SHT30;65204;48.606;7.598;2023-09-07T01:44:59;21.89;59.97
76384;SHT30;65204;48.606;7.598;2023-09-07T01:45:30;21.93;59.92
76384;SHT30;65204;48.606;7.598;2023-09-07T01:46:00;21.91;59.96
76384;SHT30;65204;48.606;7.598;2023-09-07T01:46:30;21.91;59.97
76384;SHT30;65204;48.606;7.598;2023-09-07T01:47:01;21.86;60.01
76384;SHT30;65204;48.606;7.598;2023-09-07T01:47:31;21.86;60.01
76384;SHT30;65204;48.606;7.598;2023-09-07T01:48:02;21.85;60.01
76384;SHT30;65204;48.606;7.598;2023-09-07T01:48:33;21.86;60.03
76384;SHT30;65204;48.606;7.598;2023-09-07T01:49:04;21.83;60.01
76384;SHT30;65204;48.606;7.598;2023-09-07T01:49:35;21.83;60.06
76384;SHT30;65204;48.606;7.598;2023-09-07T01:50:05;21.83;60.07
76384;SHT30;65204;48.606;7.598;2023-09-07T01:50:36;21.83;60.07
76384;SHT30;65204;48.606;7.598;2023-09-07T01:51:06;21.85;60.11
76384;SHT30;65204;48.606;7.598;2023-09-07T01:51:37;21.86;60.06
76384;SHT30;65204;48.606;7.598;2023-09-07T01:52:07;21.83;60.10
76384;SHT30;65204;48.606;7.598;2023-09-07T01:52:38;21.81;60.13
76384;SHT30;65204;48.606;7.598;2023-09-07T01:53:08;21.81;60.17
76384;SHT30;65204;48.606;7.598;2023-09-07T01:53:38;21.81;60.15
76384;SHT30;65204;48.606;7.598;2023-09-07T01:54:08;21.79;60.22
76384;SHT30;65204;48.606;7.598;2023-09-07T01:54:39;21.78;60.24
76384;SHT30;65204;48.606;7.598;2023-09-07T01:55:10;21.79;60.21
76384;SHT30;65204;48.606;7.598;2023-09-07T01:55:40;21.78;60.22
76384;SHT30;65204;48.606;7.598;2023-09-07T01:56:10;21.78;60.29
76384;SHT30;65204;48.606;7.598;2023-09-07T01:56:41;21.77;60.21
76384;SHT30;65204;48.606;7.598;2023-09-07T01:57:11;21.78;60.20
76384;SHT30;65204;48.606;7.598;2023-09-07T01:57:42;21.79;60.24
76384;SHT30;65204;48.606;7.598;2023-09-07T01:58:12;21.79;60.24
76384;SHT30;65204;48.606;7.598;2023-09-07T01:58:42;21.79;60.22
76384;SHT30;65204;48.606;7.598;2023-09-07T01:59:13;21.78;60.27
76384;SHT30;65204;48.606;7.598;2023-09-07T01:59:43;21.75;60.34
76384;SHT30;65204;48.606;7.598;2023-09-07T02:00:13;21.78;60.29
76384;SHT30;65204;48.606;7.598;2023-09-07T02:00:44;21.72;60.31
76384;SHT30;65204;48.606;7.598;2023-09-07T02:01:30;21.62;60.40
76384;SHT30;65204;48.606;7.598;2023-09-07T02:02:01;21.68;60.53
76384;SHT30;65204;48.606;7.598;2023-09-07T02:02:31;21.68;60.49
76384;SHT30;65204;48.606;7.598;2023-09-07T02:03:03;21.65;60.55
76384;SHT30;65204;48.606;7.598;2023-09-07T02:03:33;21.66;60.53
76384;SHT30;65204;48.606;7.598;2023-09-07T02:04:04;21.63;60.56
76384;SHT30;65204;48.606;7.598;2023-09-07T02:04:34;21.66;60.55
76384;SHT30;65204;48.606;7.598;2023-09-07T02:05:05;21.68;60.54
76384;SHT30;65204;48.606;7.598;2023-09-07T02:05:35;21.65;60.55
76384;SHT30;65204;48.606;7.598;2023-09-07T02:06:06;21.65;60.59
76384;SHT30;65204;48.606;7.598;2023-09-07T02:06:36;21.66;60.58
76384;SHT30;65204;48.606;7.598;2023-09-07T02:07:06;21.63;60.60
76384;SHT30;65204;48.606;7.598;2023-09-07T02:07:37;21.62;60.61
76384;SHT30;65204;48.606;7.598;2023-09-07T02:08:07;21.63;60.60
76384;SHT30;65204;48.606;7.598;2023-09-07T02:08:37;21.62;60.60
76384;SHT30;65204;48.606;7.598;2023-09-07T02:09:07;21.69;60.37
76384;SHT30;65204;48.606;7.598;2023-09-07T02:09:38;21.69;60.40
76384;SHT30;65204;48.606;7.598;2023-09-07T02:10:08;21.74;60.36
76384;SHT30;65204;48.606;7.598;2023-09-07T02:10:39;21.72;60.31
76384;SHT30;65204;48.606;7.598;2023-09-07T02:11:09;21.71;60.46
76384;SHT30;65204;48.606;7.598;2023-09-07T02:11:40;21.69;60.40
76384;SHT30;65204;48.606;7.598;2023-09-07T02:12:10;21.69;60.40
76384;SHT30;65204;48.606;7.598;2023-09-07T02:12:41;21.66;60.43
76384;SHT30;65204;48.606;7.598;2023-09-07T02:13:12;21.65;60.47
76384;SHT30;65204;48.606;7.598;2023-09-07T02:13:43;21.63;60.42
76384;SHT30;65204;48.606;7.598;2023-09-07T02:14:13;21.66;60.48
76384;SHT30;65204;48.606;7.598;2023-09-07T02:14:44;21.65;60.47
76384;SHT30;65204;48.606;7.598;2023-09-07T02:15:14;21.65;60.46
76384;SHT30;65204;48.606;7.598;2023-09-07T02:15:44;21.62;60.51
76384;SHT30;65204;48.606;7.598;2023-09-07T02:16:15;21.62;60.56
76384;SHT30;65204;48.606;7.598;2023-09-07T02:16:45;21.61;60.53
76384;SHT30;65204;48.606;7.598;2023-09-07T02:17:15;21.62;60.49
76384;SHT30;65204;48.606;7.598;2023-09-07T02:17:48;21.59;60.57
76384;SHT30;65204;48.606;7.598;2023-09-07T02:18:18;21.59;60.59
76384;SHT30;65204;48.606;7.598;2023-09-07T02:18:49;21.62;60.51
76384;SHT30;65204;48.606;7.598;2023-09-07T02:19:20;21.58;60.59
76384;SHT30;65204;48.606;7.598;2023-09-07T02:19:52;21.58;60.58
76384;SHT30;65204;48.606;7.598;2023-09-07T02:20:23;21.54;60.63
76384;SHT30;65204;48.606;7.598;2023-09-07T02:20:53;21.52;60.65
76384;SHT30;65204;48.606;7.598;2023-09-07T02:21:23;21.54;60.67
76384;SHT30;65204;48.606;7.598;2023-09-07T02:21:54;21.52;60.74
76384;SHT30;65204;48.606;7.598;2023-09-07T02:22:24;21.55;60.67
76384;SHT30;65204;48.606;7.598;2023-09-07T02:22:54;21.55;60.66
76384;SHT30;65204;48.606;7.598;2023-09-07T02:23:25;21.52;60.74
76384;SHT30;65204;48.606;7.598;2023-09-07T02:23:55;21.51;60.65
76384;SHT30;65204;48.606;7.598;2023-09-07T02:24:25;21.54;60.67
76384;SHT30;65204;48.606;7.598;2023-09-07T02:24:56;21.55;60.66
76384;SHT30;65204;48.606;7.598;2023-09-07T02:25:26;21.52;60.62
76384;SHT30;65204;48.606;7.598;2023-09-07T02:25:58;21.55;60.63
76384;SHT30;65204;48.606;7.598;2023-09-07T02:26:28;21.55;60.61
76384;SHT30;65204;48.606;7.598;2023-09-07T02:26:59;21.52;60.61
76384;SHT30;65204;48.606;7.598;2023-09-07T02:27:29;21.52;60.63
76384;SHT30;65204;48.606;7.598;2023-09-07T02:27:59;21.55;60.58
76384;SHT30;65204;48.606;7.598;2023-09-07T02:28:30;21.54;60.59
76384;SHT30;65204;48.606;7.598;2023-09-07T02:29:01;21.51;60.60
76384;SHT30;65204;48.606;7.598;2023-09-07T02:29:35;21.52;60.66
76384;SHT30;65204;48.606;7.598;2023-09-07T02:30:06;21.54;60.65
76384;SHT30;65204;48.606;7.598;2023-09-07T02:30:36;21.51;60.67
76384;SHT30;65204;48.606;7.598;2023-09-07T02:31:06;21.51;60.64
76384;SHT30;65204;48.606;7.598;2023-09-07T02:31:37;21.55;60.61
76384;SHT30;65204;48.606;7.598;2023-09-07T02:32:08;21.45;60.70
76384;SHT30;65204;48.606;7.598;2023-09-07T02:32:42;21.44;60.75
76384;SHT30;65204;48.606;7.598;2023-09-07T02:33:12;21.42;60.75
76384;SHT30;65204;48.606;7.598;2023-09-07T02:33:42;21.42;60.83
76384;SHT30;65204;48.606;7.598;2023-09-07T02:34:14;21.40;60.93
76384;SHT30;65204;48.606;7.598;2023-09-07T02:34:44;21.37;60.95
76384;SHT30;65204;48.606;7.598;2023-09-07T02:35:15;21.31;61.11
76384;SHT30;65204;48.606;7.598;2023-09-07T02:35:48;21.30;61.05
76384;SHT30;65204;48.606;7.598;2023-09-07T02:36:19;21.28;61.13
76384;SHT30;65204;48.606;7.598;2023-09-07T02:36:50;21.30;61.10
76384;SHT30;65204;48.606;7.598;2023-09-07T02:37:20;21.31;61.06
76384;SHT30;65204;48.606;7.598;2023-09-07T02:37:50;21.32;60.97
76384;SHT30;65204;48.606;7.598;2023-09-07T02:38:21;21.35;60.93
76384;SHT30;65204;48.606;7.598;2023-09-07T02:38:51;21.35;60.96
76384;SHT30;65204;48.606;7.598;2023-09-07T02:39:21;21.32;60.95
76384;SHT30;65204;48.606;7.598;2023-09-07T02:39:52;21.32;60.99
76384;SHT30;65204;48.606;7.598;2023-09-07T02:40:22;21.34;61.01
76384;SHT30;65204;48.606;7.598;2023-09-07T02:40:55;21.31;61.06
76384;SHT30;65204;48.606;7.598;2023-09-07T02:41:25;21.32;61.03
76384;SHT30;65204;48.606;7.598;2023-09-07T02:41:56;21.31;60.99
76384;SHT30;65204;48.606;7.598;2023-09-07T02:42:26;21.34;61.01
76384;SHT30;65204;48.606;7.598;2023-09-07T02:42:57;21.31;61.08
76384;SHT30;65204;48.606;7.598;2023-09-07T02:43:27;21.30;61.04
76384;SHT30;65204;48.606;7.598;2023-09-07T02:43:57;21.28;61.14
76384;SHT30;65204;48.606;7.598;2023-09-07T02:44:27;21.28;61.13
76384;SHT30;65204;48.606;7.598;2023-09-07T02:44:58;21.27;61.14
76384;SHT30;65204;48.606;7.598;2023-09-07T02:45:29;21.26;61.15
76384;SHT30;65204;48.606;7.598;2023-09-07T02:45:59;21.27;61.12
76384;SHT30;65204;48.606;7.598;2023-09-07T02:46:29;21.24;61.16
76384;SHT30;65204;48.606;7.598;2023-09-07T02:47:00;21.27;61.09
76384;SHT30;65204;48.606;7.598;2023-09-07T02:47:30;21.27;61.15
76384;SHT30;65204;48.606;7.598;2023-09-07T02:48:00;21.28;61.13
76384;SHT30;65204;48.606;7.598;2023-09-07T02:48:31;21.26;61.17
76384;SHT30;65204;48.606;7.598;2023-09-07T02:49:01;21.28;61.21
76384;SHT30;65204;48.606;7.598;2023-09-07T02:49:31;21.26;61.20
76384;SHT30;65204;48.606;7.598;2023-09-07T02:50:02;21.26;61.19
76384;SHT30;65204;48.606;7.598;2023-09-07T02:50:33;21.26;61.14
76384;SHT30;65204;48.606;7.598;2023-09-07T02:51:04;21.24;61.17
76384;SHT30;65204;48.606;7.598;2023-09-07T02:51:34;21.26;61.18
76384;SHT30;65204;48.606;7.598;2023-09-07T02:52:05;21.23;61.20
76384;SHT30;65204;48.606;7.598;2023-09-07T02:52:35;21.23;61.15
76384;SHT30;65204;48.606;7.598;2023-09-07T02:53:05;21.21;61.23
76384;SHT30;65204;48.606;7.598;2023-09-07T02:53:36;21.19;61.23
76384;SHT30;65204;48.606;7.598;2023-09-07T02:54:06;21.19;61.24
76384;SHT30;65204;48.606;7.598;2023-09-07T02:54:36;21.20;61.27
76384;SHT30;65204;48.606;7.598;2023-09-07T02:55:07;21.19;61.26
76384;SHT30;65204;48.606;7.598;2023-09-07T02:55:39;21.17;61.23
76384;SHT30;65204;48.606;7.598;2023-09-07T02:56:09;21.17;61.29
76384;SHT30;65204;48.606;7.598;2023-09-07T02:56:40;21.19;61.22
76384;SHT30;65204;48.606;7.598;2023-09-07T02:57:11;21.17;61.23
76384;SHT30;65204;48.606;7.598;2023-09-07T02:57:42;21.12;61.26
76384;SHT30;65204;48.606;7.598;2023-09-07T02:58:12;21.12;61.31
76384;SHT30;65204;48.606;7.598;2023-09-07T02:58:43;21.07;61.41
76384;SHT30;65204;48.606;7.598;2023-09-07T02:59:13;21.08;61.38
76384;SHT30;65204;48.606;7.598;2023-09-07T02:59:43;21.07;61.34
76384;SHT30;65204;48.606;7.598;2023-09-07T03:00:14;21.12;61.30
76384;SHT30;65204;48.606;7.598;2023-09-07T03:00:47;21.10;61.33
76384;SHT30;65204;48.606;7.598;2023-09-07T03:01:17;21.11;61.30
76384;SHT30;65204;48.606;7.598;2023-09-07T03:01:50;21.11;61.30
76384;SHT30;65204;48.606;7.598;2023-09-07T03:02:21;21.14;61.34
76384;SHT30;65204;48.606;7.598;2023-09-07T03:02:51;21.11;61.32
76384;SHT30;65204;48.606;7.598;2023-09-07T03:03:22;21.12;61.30
76384;SHT30;65204;48.606;7.598;2023-09-07T03:03:52;21.12;61.22
76384;SHT30;65204;48.606;7.598;2023-09-07T03:04:22;21.15;61.22
76384;SHT30;65204;48.606;7.598;2023-09-07T03:04:54;21.15;61.20
76384;SHT30;65204;48.606;7.598;2023-09-07T03:05:27;21.12;61.18
76384;SHT30;65204;48.606;7.598;2023-09-07T03:06:16;21.12;61.26
76384;SHT30;65204;48.606;7.598;2023-09-07T03:06:46;21.08;61.41
76384;SHT30;65204;48.606;7.598;2023-09-07T03:07:17;21.11;61.35
76384;SHT30;65204;48.606;7.598;2023-09-07T03:07:49;21.08;61.36
76384;SHT30;65204;48.606;7.598;2023-09-07T03:08:20;21.10;61.37
76384;SHT30;65204;48.606;7.598;2023-09-07T03:08:50;21.07;61.37
76384;SHT30;65204;48.606;7.598;2023-09-07T03:09:22;21.07;61.41
76384;SHT30;65204;48.606;7.598;2023-09-07T03:09:52;21.07;61.34
76384;SHT30;65204;48.606;7.598;2023-09-07T03:10:23;21.07;61.35
76384;SHT30;65204;48.606;7.598;2023-09-07T03:10:53;21.07;61.30
76384;SHT30;65204;48.606;7.598;2023-09-07T03:11:23;21.06;61.31
76384;SHT30;65204;48.606;7.598;2023-09-07T03:11:54;21.07;61.30
76384;SHT30;65204;48.606;7.598;2023-09-07T03:12:24;21.08;61.29
76384;SHT30;65204;48.606;7.598;2023-09-07T03:12:54;21.06;61.31
76384;SHT30;65204;48.606;7.598;2023-09-07T03:13:25;21.07;61.32
76384;SHT30;65204;48.606;7.598;2023-09-07T03:13:55;21.06;61.26
76384;SHT30;65204;48.606;7.598;2023-09-07T03:14:26;21.06;61.24
76384;SHT30;65204;48.606;7.598;2023-09-07T03:14:56;21.04;61.25
76384;SHT30;65204;48.606;7.598;2023-09-07T03:15:26;21.08;61.23